Syracuse, NY

2:48 PM EST on February 06, 2016 (GMT -0500)
MoST* - Armory Square | | Change Station
CLOSE
Current Station
Personal Weather Station
Location: Syracuse, NY
Elevation: 400 ft
Nearby Weather Stations

Elev 400 ft 43.05 °N, 76.16 °W | Updated 3 minutes ago

Overcast
Overcast
38.8 °F
Feels Like 39 °F
N
0.0
Wind Variable Wind from WNW
Gusts 5.0 mph

Today
High -- | Low -- °F
--% Chance of Precip.
Yesterday
High -- | Low -- °F
Precip. -- in
Pressure 30.18 in
Visibility 10.0 miles
Clouds Overcast 6000 ft
Windchill 39 °F
Dew Point 20 °F
Humidity 46%
Rainfall 0.00 in
Snow Depth Not available.
7:14 AM 5:23 PM
Waning Crescent, 4% visible
METAR KSYR 061854Z 25016G21KT 10SM OVC060 03/M07 A3017 RMK AO2 SLP219 T00331067 $
Pressure 30.18 in
Visibility 10.0 miles
Clouds Overcast 6000 ft
Windchill 39 °F
Dew Point 20 °F
Humidity 46%
Rainfall 0.00 in
Snow Depth Not available.
7:14 AM 5:23 PM
Waning Crescent, 4% visible
METAR KSYR 061854Z 25016G21KT 10SM OVC060 03/M07 A3017 RMK AO2 SLP219 T00331067 $

10-Day Weather Forecast

Almanac

Astronomy

Feb. 06, 2016 Rise Set
Actual Time
Civil Twilight
Nautical Twilight
Astronomical Twilight
Moon
Length of Visible Light
Length of Day
Tomorrow will be .
, % of the Moon is Illuminated

Today's Extremes

State Highs State Lows

Community

WunderPhotos

Upload Photos

1,891,037 photos uploaded!

WunderBlog® & News

Nearby

Air Quality

  Air Quality AQ Index Pollutant
Not available.

Snow Depth

Station Depth Elevation

Earthquake Activity

City Distance Mag. Time & Date
Minimum magnitude displayed is 2.5.

Coastal Water Temperatures

Place Temperature

Stations

Nearby Weather Stations

Station Location Temp. Windchill Dew Point Humidity Wind Precip. Elev Updated Type
                   

Watches & Warnings

There are currently no watches in effect.